A- A+ FrançaisEnglishEspañol中国

le plus proche LFBT Tarbes-Lourdes-PyrénéesLFTM Serres La Batie MontsaleonLFOJ Orlean-Bricy LFOZ Orleans-St-Denis-De-L'hotel

manche à air

La météo aéronautique pour les pilotes, la préparation du vol avec les METAR (METeorological Aerodrome Report, message d'observation des conditions météorologiques pour l'aviation) et Les TAF (Terminal Aerodrome Forecast : message de prévision à court terme des conditions météorologiques pour l'aviation). Et les autres ressources comme les VAC (Visual Approch Chart) et les NOTAM (Notice To Airman) pour préprer les vols.

Aéroport Linton on Ouse (Royaume-Uni) / OACI EGXU/ IATA HRT

L'altitude de l'aéroport Linton on Ouse est de 16 m=52 ft. Il est situé à proximité de Linton-On-Ouse (Royaume-Uni). La météo générale à 5 jours est disponible pour Alne situé à 4 km.

METAR de l'aéroport Linton on Ouse - EGXU

EGXU 250950Z AUTO 22004KT 9999 // NCD 04/03 Q1022

Décodage du METAR de l'aéroport Linton on Ouse (GB)

METAR émis par EGXU le mercredi 25 décembre 2019 à 09:50 heure TU. C'est un METAR généré automatiquement. Attention ce METAR est obsolète car il a été émis il y a 10 heure et 46 minutes.

La visibilité est de supérieure à 10 km=supérieure à 6.2 sm.

La température est de 4°C=39 °F et le point rosée est de 3°C=37 °F . Ce qui correspond à 93% d'humidité relative.

Le QNH est de 1022 hPa=30.18 inHg

Vent de 4 kt=7 km/h, orienté à 220°.

Pas de nuages.

TAF de l'aéroport Linton on Ouse - EGXU

EGXU 180809Z 1809/1818 14006KT 0400 FZFG OVC001 BECMG 1809/1811 FG PROB30 TEMPO 1811/1815 3000 BR OVC002 BECMG 1815/1818 7000 HZ BKN008

EGXU 180809Z 1809/1818 14006KT 0400 FZFG couverture nuageuse soudée à 001 devenant 1809/1811 brouillard probabilité de 30% d'avoir temporairement 1811/1815 3000 brume couverture nuageuse soudée à 002 devenant 1815/1818 7000 brume sèche couverture nuageuse fragmentée à 008

Aéroport à proximité de Linton on Ouse

Météo générale à 5 jours à Alne (4 km)EG64 Aéroport York Rufforth (12 km)EGXD Aéroport Dishforth (15 km)EGXZ Aéroport Topcliffe (19 km)EGXG Aéroport Church Fenton (24 km)EGNU Aéroport Full Sutton (26 km)EGCJ Aéroport Sherburn in Elmet (29 km)

Vue aérienne de l'aéroport Linton on Ouse

NOTAM de l'aéroport Linton on Ouse

Les NOTAM sont fournis sans aucune garantie de leur actualité. Le pilote est le seul responsable de la vérification de sa validité avant de l'utiliser opérationnellement pour préparer un vol ou l'utiliser lors de sa navigation.

Pas de NOTAM

Sources des données